Gillett, Texas
Current Conditions -  °F | °C
As of 10:55 AM on Saturday 25 Oct 2014 (Local Time) from KT20 Reporting Station
Clear Clear  
Wind Chill: 77°   Ceiling: Unl
Heat Index: 79°   Visibility: 10mi
Dew Point: 63°   Wind: 0mph
Humidity: 61%   Direction: NA
Pressure: 30.19"   Gusts: NA
Location:  29.13°N, 97.78°W
Report Text: KT20 251555Z AUTO 00000KT 10SM CLR 25/17 A3019 RMK AO2 T02490170
Loading
Personal Weather Stations






























Interactive Weather Map
Tropical Storm Tracking
New forecast layout! Learn more

10-Day Weather Forecast

Advertisements
Track Severe Weather on mobile